createdAt,value
2023-04-25T00:00:08.031Z,1.20
2023-04-25T00:02:39.108Z,1.40
2023-04-25T00:05:24.883Z,1.30
2023-04-25T00:07:51.714Z,2.53
2023-04-25T00:10:20.273Z,1.50
2023-04-25T00:12:47.176Z,1.10
2023-04-25T00:15:13.928Z,1.43
2023-04-25T00:17:41.155Z,1.83
2023-04-25T00:20:11.572Z,1.67
2023-04-25T00:25:22.789Z,1.40
2023-04-25T00:27:49.558Z,1.30
2023-04-25T00:30:16.380Z,1.60
2023-04-25T00:32:43.267Z,1.30
2023-04-25T00:35:10.569Z,1.57
2023-04-25T00:37:37.334Z,1.97
2023-04-25T00:40:07.294Z,1.53
2023-04-25T00:42:35.986Z,1.70
2023-04-25T00:45:03.258Z,1.40
2023-04-25T00:47:30.077Z,1.40
2023-04-25T00:49:56.990Z,1.20
2023-04-25T00:52:24.005Z,1.57
2023-04-25T00:54:50.885Z,1.27
2023-04-25T00:57:17.690Z,2.20
2023-04-25T00:59:47.399Z,1.73
2023-04-25T01:02:34.401Z,1.30
2023-04-25T01:05:02.019Z,1.97
2023-04-25T01:07:29.072Z,1.97
2023-04-25T01:09:57.745Z,1.40
2023-04-25T01:12:24.750Z,1.60
2023-04-25T01:14:51.602Z,1.40
2023-04-25T01:17:19.464Z,1.80
2023-04-25T01:19:49.248Z,1.80
2023-04-25T01:22:16.729Z,1.83
2023-04-25T01:24:44.008Z,1.40
2023-04-25T01:27:12.194Z,1.20
2023-04-25T01:29:39.956Z,1.47
2023-04-25T01:32:07.297Z,1.17
2023-04-25T01:34:34.227Z,1.13
2023-04-25T01:37:02.852Z,0.83
2023-04-25T01:39:29.776Z,1.03
2023-04-25T01:41:59.888Z,1.50
2023-04-25T01:44:27.104Z,1.30
2023-04-25T01:46:55.265Z,1.13
2023-04-25T01:49:22.297Z,1.20
2023-04-25T01:51:49.752Z,1.10
2023-04-25T01:54:16.686Z,1.53
2023-04-25T01:56:43.478Z,1.47
2023-04-25T01:59:11.934Z,1.37
2023-04-25T02:02:30.476Z,1.30
2023-04-25T02:04:57.448Z,1.57
2023-04-25T02:07:42.795Z,1.50
2023-04-25T02:10:10.397Z,1.40
2023-04-25T02:12:46.467Z,1.40
2023-04-25T02:15:32.609Z,1.13
2023-04-25T02:18:11.554Z,1.20
2023-04-25T02:20:40.971Z,1.40
2023-04-25T02:23:07.740Z,1.40
2023-04-25T02:25:34.567Z,1.73
2023-04-25T02:28:01.500Z,1.57
2023-04-25T02:30:46.895Z,1.00
2023-04-25T02:33:13.857Z,1.23
2023-04-25T02:35:40.651Z,1.40
2023-04-25T02:38:07.488Z,1.30
2023-04-25T02:40:34.267Z,1.30
2023-04-25T02:43:01.181Z,1.43
2023-04-25T02:45:27.953Z,1.27
2023-04-25T02:47:54.714Z,1.20
2023-04-25T02:50:21.503Z,1.10
2023-04-25T02:53:06.929Z,1.30
2023-04-25T02:55:40.433Z,0.70
2023-04-25T02:58:08.445Z,0.97
2023-04-25T03:00:44.681Z,0.77
2023-04-25T03:03:12.135Z,0.90
2023-04-25T03:05:39.135Z,0.97
2023-04-25T03:08:06.396Z,1.23
2023-04-25T03:10:34.397Z,1.13
2023-04-25T03:13:05.498Z,0.90
2023-04-25T03:15:32.386Z,1.10
2023-04-25T03:17:59.254Z,0.60
2023-04-25T03:20:26.229Z,0.67
2023-04-25T03:22:53.115Z,0.67
2023-04-25T03:25:20.040Z,0.73
2023-04-25T03:27:46.981Z,0.70
2023-04-25T03:30:14.197Z,1.50
2023-04-25T03:32:43.018Z,0.90
2023-04-25T03:35:09.982Z,0.63
2023-04-25T03:37:36.928Z,0.70
2023-04-25T03:40:05.104Z,1.10
2023-04-25T03:42:51.972Z,0.60
2023-04-25T03:45:18.968Z,0.77
2023-04-25T03:47:46.611Z,0.90
2023-04-25T03:50:13.540Z,0.80
2023-04-25T03:52:40.322Z,1.10
2023-04-25T03:55:26.051Z,1.20
2023-04-25T03:57:53.421Z,1.23
2023-04-25T04:00:20.468Z,0.80
2023-04-25T04:02:52.600Z,1.40
2023-04-25T04:05:19.849Z,0.80
2023-04-25T04:07:54.773Z,1.50
2023-04-25T04:10:22.961Z,1.20
2023-04-25T04:12:49.743Z,1.20
2023-04-25T04:15:17.738Z,0.90
2023-04-25T04:17:46.513Z,1.20
2023-04-25T04:20:13.368Z,1.03
2023-04-25T04:22:41.114Z,0.93
2023-04-25T04:25:12.753Z,1.00
2023-04-25T04:28:02.795Z,0.87
2023-04-25T04:31:02.112Z,1.57
2023-04-25T04:33:30.538Z,1.03
2023-04-25T04:36:00.523Z,0.80
2023-04-25T04:38:46.516Z,0.70
2023-04-25T04:41:21.256Z,1.00
2023-04-25T04:43:54.306Z,1.30
2023-04-25T04:46:43.111Z,1.10
2023-04-25T04:49:31.194Z,1.37
2023-04-25T04:52:27.500Z,1.40
2023-04-25T04:55:02.376Z,0.80
2023-04-25T04:57:41.288Z,0.87
2023-04-25T05:00:34.329Z,0.80
2023-04-25T05:03:17.474Z,0.80
2023-04-25T05:06:06.487Z,1.07
2023-04-25T05:08:48.169Z,1.50
2023-04-25T05:11:47.214Z,0.93
2023-04-25T05:14:34.330Z,0.90
2023-04-25T05:17:19.702Z,0.60
2023-04-25T05:20:08.020Z,0.90
2023-04-25T05:23:01.174Z,1.10
2023-04-25T05:25:46.492Z,1.43
2023-04-25T05:28:21.795Z,1.03
2023-04-25T05:31:04.813Z,0.97
2023-04-25T05:33:42.433Z,0.90
2023-04-25T05:36:09.817Z,1.00
2023-04-25T05:38:36.930Z,0.70
2023-04-25T05:41:35.720Z,1.10
2023-04-25T05:44:21.083Z,0.83
2023-04-25T05:47:07.996Z,1.10
2023-04-25T05:49:54.711Z,1.33
2023-04-25T05:52:46.961Z,1.30
2023-04-25T05:55:31.200Z,1.20
2023-04-25T05:58:00.214Z,1.00
2023-04-25T06:00:27.331Z,1.13
2023-04-25T06:02:54.263Z,1.07
2023-04-25T06:05:21.624Z,1.03
2023-04-25T06:07:48.786Z,1.17
2023-04-25T06:10:16.094Z,0.90
2023-04-25T06:12:43.437Z,1.00
2023-04-25T06:15:31.230Z,1.07
2023-04-25T06:18:00.520Z,0.83
2023-04-25T06:20:27.442Z,1.40
2023-04-25T06:22:57.144Z,0.77
2023-04-25T06:25:46.956Z,0.63
2023-04-25T06:28:14.061Z,0.80
2023-04-25T06:30:42.819Z,0.70
2023-04-25T06:33:13.872Z,0.87
2023-04-25T06:35:41.783Z,0.57
2023-04-25T06:38:11.597Z,0.97
2023-04-25T06:40:40.468Z,0.60
2023-04-25T06:43:28.471Z,0.50
2023-04-25T06:46:06.792Z,0.90
2023-04-25T06:48:40.823Z,1.33
2023-04-25T06:51:07.751Z,1.03
2023-04-25T06:53:36.130Z,1.20
2023-04-25T06:56:06.299Z,1.87
2023-04-25T06:58:44.577Z,1.30
2023-04-25T07:01:37.507Z,1.97
2023-04-25T07:04:09.662Z,0.90
2023-04-25T07:06:43.707Z,0.70
2023-04-25T07:09:11.851Z,0.97
2023-04-25T07:11:39.600Z,0.97
2023-04-25T07:14:25.426Z,1.13
2023-04-25T07:16:52.853Z,0.70
2023-04-25T07:19:20.098Z,0.93
2023-04-25T07:21:46.963Z,0.87
2023-04-25T07:24:13.746Z,1.10
2023-04-25T07:26:45.979Z,0.60
2023-04-25T07:29:27.219Z,0.40
2023-04-25T07:32:12.702Z,0.77
2023-04-25T07:34:39.816Z,0.43
2023-04-25T07:37:07.099Z,0.70
2023-04-25T07:42:28.071Z,0.67
2023-04-25T07:44:54.856Z,1.10
2023-04-25T07:47:22.732Z,0.90
2023-04-25T07:49:49.819Z,0.70
2023-04-25T07:52:35.394Z,0.70
2023-04-25T07:55:17.442Z,0.87
2023-04-25T07:57:57.031Z,0.70
2023-04-25T08:00:24.080Z,0.60
2023-04-25T08:03:02.494Z,0.70
2023-04-25T08:05:30.429Z,0.50
2023-04-25T08:08:03.286Z,0.70
2023-04-25T08:10:30.570Z,0.77
2023-04-25T08:12:57.616Z,0.40
2023-04-25T08:15:24.468Z,0.90
2023-04-25T08:17:51.570Z,1.07
2023-04-25T08:20:18.913Z,0.87
2023-04-25T08:22:45.870Z,0.70
2023-04-25T08:28:13.351Z,0.80
2023-04-25T08:30:40.236Z,0.80
2023-04-25T08:33:10.734Z,1.00
2023-04-25T08:35:57.774Z,0.70
2023-04-25T08:38:26.032Z,0.97
2023-04-25T08:40:56.515Z,1.30
2023-04-25T08:43:24.526Z,0.80
2023-04-25T08:45:55.411Z,0.77
2023-04-25T08:48:34.579Z,0.83
2023-04-25T08:51:04.871Z,0.80
2023-04-25T08:53:36.156Z,0.70
2023-04-25T08:56:07.166Z,0.90
2023-04-25T08:58:38.012Z,0.70
2023-04-25T09:01:05.224Z,0.80
2023-04-25T09:03:38.337Z,0.60
2023-04-25T09:06:06.340Z,0.70
2023-04-25T09:08:33.218Z,0.70
2023-04-25T09:11:00.379Z,0.57
2023-04-25T09:13:28.845Z,0.83
2023-04-25T09:16:22.828Z,1.60
2023-04-25T09:19:08.593Z,0.40
2023-04-25T09:21:36.002Z,0.33
2023-04-25T09:24:03.372Z,0.23
2023-04-25T09:26:30.339Z,0.30
2023-04-25T09:29:08.286Z,0.40
2023-04-25T09:34:22.264Z,0.40
2023-04-25T09:36:56.345Z,0.40
2023-04-25T09:39:51.400Z,0.80
2023-04-25T09:42:18.983Z,0.50
2023-04-25T09:44:47.348Z,0.60
2023-04-25T09:47:18.990Z,0.70
2023-04-25T09:50:14.483Z,0.80
2023-04-25T09:52:41.618Z,0.60
2023-04-25T09:55:17.341Z,0.90
2023-04-25T09:57:49.228Z,0.77
2023-04-25T10:00:17.413Z,1.27
2023-04-25T10:02:49.539Z,4.40
2023-04-25T10:05:44.422Z,1.17
2023-04-25T10:08:13.257Z,2.10
2023-04-25T10:10:41.395Z,1.37
2023-04-25T10:13:09.261Z,1.83
2023-04-25T10:15:40.450Z,2.23
2023-04-25T10:18:08.463Z,2.33
2023-04-25T10:20:35.757Z,2.73
2023-04-25T10:23:18.044Z,1.10
2023-04-25T10:25:45.438Z,2.70
2023-04-25T10:28:12.321Z,0.70
2023-04-25T10:30:57.588Z,1.27
2023-04-25T10:33:34.753Z,0.93
2023-04-25T10:36:18.570Z,0.80
2023-04-25T10:38:46.998Z,3.47
2023-04-25T10:41:14.948Z,2.87
2023-04-25T10:43:43.620Z,1.73
2023-04-25T10:46:23.663Z,0.90
2023-04-25T10:51:54.479Z,0.80
2023-04-25T10:54:24.240Z,0.60
2023-04-25T10:56:52.255Z,0.73
2023-04-25T10:59:20.744Z,0.90
2023-04-25T11:01:50.291Z,0.70
2023-04-25T11:04:30.799Z,0.80
2023-04-25T11:07:07.970Z,0.87
2023-04-25T11:09:36.885Z,0.90
2023-04-25T11:12:22.391Z,0.87
2023-04-25T11:14:49.160Z,0.60
2023-04-25T11:17:16.102Z,0.90
2023-04-25T11:19:43.007Z,0.70
2023-04-25T11:22:11.718Z,1.30
2023-04-25T11:24:39.032Z,0.80
2023-04-25T11:27:09.082Z,1.00
2023-04-25T11:29:36.390Z,1.10
2023-04-25T11:32:03.460Z,2.30
2023-04-25T11:34:34.527Z,9.03
2023-04-25T11:37:03.098Z,9.43
2023-04-25T11:39:30.538Z,4.30
2023-04-25T11:41:57.503Z,3.30
2023-04-25T11:44:24.582Z,7.63
2023-04-25T11:46:51.477Z,4.07
2023-04-25T11:49:23.122Z,1.70
2023-04-25T11:51:50.043Z,1.47
2023-04-25T11:54:17.417Z,1.20
2023-04-25T11:56:45.855Z,1.30
2023-04-25T11:59:14.816Z,1.00
2023-04-25T12:01:49.972Z,0.80
2023-04-25T12:04:24.816Z,0.97
2023-04-25T12:07:11.087Z,0.57
2023-04-25T12:09:56.874Z,0.93
2023-04-25T12:12:28.806Z,0.90
2023-04-25T12:14:56.285Z,0.63
2023-04-25T12:17:23.767Z,0.60
2023-04-25T12:19:50.717Z,1.60
2023-04-25T12:22:40.846Z,1.03
2023-04-25T12:25:08.673Z,0.50
2023-04-25T12:27:37.044Z,2.43
2023-04-25T12:30:04.864Z,1.30
2023-04-25T12:32:31.843Z,4.47
2023-04-25T12:34:58.741Z,1.50
2023-04-25T12:37:25.521Z,1.73
2023-04-25T12:39:52.367Z,1.17
2023-04-25T12:42:19.109Z,0.70
2023-04-25T12:45:04.301Z,7.17
2023-04-25T12:47:31.444Z,1.30
2023-04-25T12:49:58.226Z,1.50
2023-04-25T12:52:24.982Z,1.00
2023-04-25T12:55:10.781Z,0.73
2023-04-25T12:57:37.591Z,0.90
2023-04-25T13:00:05.695Z,1.30
2023-04-25T13:02:51.257Z,2.17
2023-04-25T13:05:18.274Z,0.87
2023-04-25T13:07:45.061Z,1.03
2023-04-25T13:15:40.791Z,0.80
2023-04-25T13:18:07.915Z,0.77
2023-04-25T13:20:35.155Z,1.00
2023-04-25T13:23:02.948Z,1.00
2023-04-25T13:25:30.017Z,1.13
2023-04-25T13:27:56.804Z,1.07
2023-04-25T13:30:23.764Z,0.83
2023-04-25T13:33:09.176Z,0.60
2023-04-25T13:35:37.292Z,0.77
2023-04-25T13:38:04.403Z,0.60
2023-04-25T13:40:31.743Z,1.10
2023-04-25T13:42:58.953Z,0.80
2023-04-25T13:45:29.594Z,0.98
2023-04-25T13:47:57.920Z,0.67
2023-04-25T13:50:43.810Z,1.00
2023-04-25T13:53:10.877Z,0.87
2023-04-25T13:55:37.967Z,0.70
2023-04-25T13:58:11.266Z,0.70
2023-04-25T14:00:40.445Z,0.60
2023-04-25T14:03:11.038Z,0.77
2023-04-25T14:05:57.021Z,1.47
2023-04-25T14:08:23.760Z,1.00
2023-04-25T14:10:50.487Z,1.00
2023-04-25T14:13:17.223Z,0.75
2023-04-25T14:15:44.037Z,0.70
2023-04-25T14:18:29.689Z,0.80
2023-04-25T14:20:56.544Z,0.83
2023-04-25T14:23:23.298Z,1.15
2023-04-25T14:25:50.111Z,1.73
2023-04-25T14:28:16.849Z,1.00
2023-04-25T14:30:43.795Z,0.63
2023-04-25T14:33:10.678Z,0.70
2023-04-25T14:35:37.532Z,0.60
2023-04-25T14:38:04.323Z,1.00
2023-04-25T14:40:31.122Z,0.90
2023-04-25T14:42:57.857Z,0.68
2023-04-25T14:45:24.679Z,0.60
2023-04-25T14:50:35.767Z,1.20
2023-04-25T14:53:02.762Z,0.90
2023-04-25T14:55:29.704Z,1.50
2023-04-25T14:57:57.687Z,0.90
2023-04-25T15:00:26.248Z,1.20
2023-04-25T15:02:53.231Z,1.30
2023-04-25T15:05:21.150Z,1.20
2023-04-25T15:07:48.920Z,1.30
2023-04-25T15:10:17.289Z,0.80
2023-04-25T15:12:46.328Z,1.57
2023-04-25T15:15:22.490Z,1.60
2023-04-25T15:17:56.575Z,0.70
2023-04-25T15:20:26.165Z,1.30
2023-04-25T15:22:53.106Z,0.97
2023-04-25T15:25:38.601Z,0.90
2023-04-25T15:28:05.712Z,0.80
2023-04-25T15:30:32.573Z,0.87
2023-04-25T15:32:59.449Z,0.90
2023-04-25T15:35:26.446Z,0.53
2023-04-25T15:37:53.345Z,0.87
2023-04-25T15:40:20.321Z,0.90
2023-04-25T15:42:51.575Z,0.43
2023-04-25T15:48:04.983Z,0.80
2023-04-25T15:50:31.911Z,0.47
2023-04-25T15:52:58.842Z,0.70
2023-04-25T15:55:26.938Z,0.67
2023-04-25T15:57:53.868Z,0.63
2023-04-25T16:00:22.389Z,1.67
2023-04-25T16:05:34.166Z,0.90
2023-04-25T16:08:19.786Z,0.75
2023-04-25T16:10:46.680Z,0.60
2023-04-25T16:13:13.513Z,1.17
2023-04-25T16:15:41.561Z,1.40
2023-04-25T16:18:08.408Z,0.80
2023-04-25T16:20:35.418Z,0.70
2023-04-25T16:23:02.232Z,0.70
2023-04-25T16:26:08.860Z,1.00
2023-04-25T16:28:36.038Z,0.80
2023-04-25T16:31:02.878Z,0.45
2023-04-25T16:33:30.280Z,0.80
2023-04-25T16:35:57.720Z,1.37
2023-04-25T16:38:24.636Z,1.30
2023-04-25T16:40:51.526Z,2.00
2023-04-25T16:43:20.529Z,1.05
2023-04-25T16:45:50.144Z,0.83
2023-04-25T16:48:19.842Z,0.75
2023-04-25T16:50:46.745Z,1.57
2023-04-25T16:53:13.571Z,1.00
2023-04-25T16:55:40.456Z,1.40
2023-04-25T16:58:09.980Z,0.80
2023-04-25T17:00:37.625Z,1.10
2023-04-25T17:03:04.881Z,1.40
2023-04-25T17:05:50.314Z,1.20
2023-04-25T17:08:17.183Z,0.80
2023-04-25T17:10:43.965Z,0.90
2023-04-25T17:13:10.938Z,0.90
2023-04-25T17:15:37.778Z,1.03
2023-04-25T17:18:04.708Z,1.20
2023-04-25T17:20:32.033Z,1.20
2023-04-25T17:22:59.095Z,0.93
2023-04-25T17:25:26.144Z,0.77
2023-04-25T17:27:53.344Z,0.67
2023-04-25T17:30:20.303Z,1.37
2023-04-25T17:32:47.148Z,1.27
2023-04-25T17:35:15.746Z,4.15
2023-04-25T17:37:43.849Z,3.20
2023-04-25T17:40:12.144Z,4.07
2023-04-25T17:42:39.940Z,4.07
2023-04-25T17:45:07.978Z,1.65
2023-04-25T17:47:35.066Z,1.23
2023-04-25T17:50:01.892Z,5.37
2023-04-25T17:55:12.865Z,3.07
2023-04-25T17:57:39.640Z,1.80
2023-04-25T18:00:11.404Z,1.20
2023-04-25T18:02:41.939Z,2.57
2023-04-25T18:05:09.891Z,2.45
2023-04-25T18:07:37.504Z,2.60
2023-04-25T18:10:10.236Z,1.83
2023-04-25T18:12:38.419Z,2.20
2023-04-25T18:15:07.021Z,1.10
2023-04-25T18:17:39.820Z,2.13
2023-04-25T18:20:15.125Z,5.10
2023-04-25T18:22:43.241Z,2.60
2023-04-25T18:25:29.196Z,1.50
2023-04-25T18:27:56.337Z,4.03
2023-04-25T18:30:23.189Z,3.43
2023-04-25T18:32:50.216Z,3.17
2023-04-25T18:35:17.151Z,1.30
2023-04-25T18:37:44.421Z,2.17
2023-04-25T18:40:14.128Z,2.37
2023-04-25T18:42:41.155Z,5.47
2023-04-25T18:45:09.359Z,2.97
2023-04-25T18:47:36.218Z,4.27
2023-04-25T18:50:04.723Z,3.27
2023-04-25T18:52:31.551Z,1.47
2023-04-25T18:54:58.610Z,2.70
2023-04-25T18:57:26.473Z,2.83
2023-04-25T18:59:53.890Z,3.30
2023-04-25T19:02:22.797Z,3.47
2023-04-25T19:04:49.815Z,3.63
2023-04-25T19:07:17.315Z,2.77
2023-04-25T19:09:44.094Z,2.73
2023-04-25T19:12:11.379Z,2.67
2023-04-25T19:14:38.180Z,2.23
2023-04-25T19:17:24.147Z,6.17
2023-04-25T19:19:50.962Z,4.57
2023-04-25T19:22:17.778Z,7.97
2023-04-25T19:24:44.684Z,2.80
2023-04-25T19:27:12.024Z,2.67
2023-04-25T19:29:44.316Z,3.63
2023-04-25T19:32:11.502Z,2.83
2023-04-25T19:34:38.262Z,3.93
2023-04-25T19:37:05.039Z,2.50
2023-04-25T19:39:31.833Z,3.17
2023-04-25T19:41:59.520Z,2.70
2023-04-25T19:44:26.877Z,2.20
2023-04-25T19:46:53.757Z,2.10
2023-04-25T19:49:21.354Z,1.97
2023-04-25T19:51:48.171Z,2.50
2023-04-25T19:54:33.624Z,1.97
2023-04-25T19:57:01.923Z,2.60
2023-04-25T19:59:28.879Z,4.13
2023-04-25T20:01:56.375Z,3.87
2023-04-25T20:04:23.301Z,1.77
2023-04-25T20:06:50.131Z,2.23
2023-04-25T20:09:17.002Z,2.00
2023-04-25T20:11:43.837Z,1.67
2023-04-25T20:14:10.588Z,1.80
2023-04-25T20:16:55.858Z,1.63
2023-04-25T20:19:23.182Z,1.40
2023-04-25T20:21:49.921Z,1.33
2023-04-25T20:24:16.720Z,1.50
2023-04-25T20:26:43.470Z,1.17
2023-04-25T20:29:11.138Z,1.40
2023-04-25T20:31:38.079Z,1.67
2023-04-25T20:34:05.004Z,1.77
2023-04-25T20:36:32.233Z,1.43
2023-04-25T20:38:59.053Z,1.80
2023-04-25T20:41:26.190Z,1.30
2023-04-25T20:43:54.236Z,1.33
2023-04-25T20:46:21.483Z,1.53
2023-04-25T20:48:48.315Z,1.83
2023-04-25T20:51:15.572Z,1.83
2023-04-25T20:53:42.479Z,1.87
2023-04-25T20:59:13.101Z,1.80
2023-04-25T21:01:40.704Z,1.60
2023-04-25T21:04:09.382Z,1.90
2023-04-25T21:06:36.563Z,1.70
2023-04-25T21:09:04.734Z,1.50
2023-04-25T21:11:31.613Z,1.73
2023-04-25T21:13:58.442Z,1.67
2023-04-25T21:16:25.309Z,2.23
2023-04-25T21:18:52.331Z,3.57
2023-04-25T21:21:19.384Z,2.83
2023-04-25T21:23:46.162Z,3.13
2023-04-25T21:26:12.966Z,2.87
2023-04-25T21:28:39.832Z,2.37
2023-04-25T21:31:07.095Z,3.00
2023-04-25T21:33:33.928Z,2.13
2023-04-25T21:36:01.206Z,2.30
2023-04-25T21:38:27.957Z,1.83
2023-04-25T21:40:54.742Z,1.93
2023-04-25T21:43:21.635Z,2.23
2023-04-25T21:46:14.727Z,1.83
2023-04-25T21:48:35.182Z,2.23
2023-04-25T21:51:01.924Z,2.30
2023-04-25T21:53:28.749Z,2.00
2023-04-25T21:55:55.543Z,1.70
2023-04-25T21:58:22.372Z,1.80
2023-04-25T22:00:49.211Z,1.87
2023-04-25T22:03:16.474Z,2.33
2023-04-25T22:05:44.302Z,1.90
2023-04-25T22:08:11.092Z,1.43
2023-04-25T22:10:39.880Z,1.40
2023-04-25T22:13:06.784Z,1.43
2023-04-25T22:15:33.618Z,1.50
2023-04-25T22:18:00.820Z,1.33
2023-04-25T22:20:28.123Z,2.00
2023-04-25T22:22:56.487Z,1.20
2023-04-25T22:25:23.965Z,1.87
2023-04-25T22:27:51.515Z,1.77
2023-04-25T22:30:18.525Z,1.43
2023-04-25T22:32:45.424Z,1.40
2023-04-25T22:35:12.526Z,1.33
2023-04-25T22:37:41.465Z,1.43
2023-04-25T22:40:11.624Z,1.50
2023-04-25T22:42:43.232Z,1.03
2023-04-25T22:45:12.345Z,1.67
2023-04-25T22:47:40.097Z,2.03
2023-04-25T22:50:12.462Z,1.80
2023-04-25T22:52:39.672Z,1.33
2023-04-25T22:55:25.550Z,1.47
2023-04-25T22:57:53.261Z,1.07
2023-04-25T23:00:20.380Z,1.20
2023-04-25T23:02:48.621Z,1.13
2023-04-25T23:05:15.826Z,0.87
2023-04-25T23:07:43.760Z,0.80
2023-04-25T23:10:11.069Z,1.40
2023-04-25T23:12:38.083Z,1.47
2023-04-25T23:15:05.450Z,1.10
2023-04-25T23:17:32.778Z,1.50
2023-04-25T23:19:59.664Z,2.00
2023-04-25T23:22:26.537Z,1.03
2023-04-25T23:24:53.331Z,1.10
2023-04-25T23:27:20.144Z,1.30
2023-04-25T23:29:57.904Z,0.90
2023-04-25T23:32:26.243Z,0.73
2023-04-25T23:34:53.157Z,1.13
2023-04-25T23:37:19.927Z,0.93
2023-04-25T23:39:50.889Z,0.90
2023-04-25T23:42:18.353Z,1.10
2023-04-25T23:44:45.215Z,0.90
2023-04-25T23:47:17.515Z,0.80
2023-04-25T23:49:45.197Z,0.70
2023-04-25T23:54:56.693Z,1.07
2023-04-25T23:57:44.402Z,1.20
